ADDS METAR Data INFO
IDs: Format: Raw Decoded Include TAF

Data at: 1133 UTC 29 May 2017

KHRX 291115Z AUTO 29004KT 10SM SCT120 08/04 A3020 RMK AO2 T00800044
KHRX 291055Z AUTO 31004KT 10SM CLR 08/04 A3019 RMK AO2 T00780041
KHRX 291035Z AUTO 00000KT 10SM CLR 09/05 A3018 RMK AO2 T00860050
KHRX 291015Z AUTO 00000KT 10SM CLR 08/05 A3018 RMK AO2 T00810046
KHRX 290955Z AUTO 31003KT 10SM CLR 08/05 A3019 RMK AO2 T00830049
KHRX 290935Z AUTO 00000KT 10SM CLR 09/05 A3019 RMK AO2 T00850054
KHRX 290915Z AUTO 00000KT 10SM CLR 08/05 A3020 RMK AO2 T00810046
KHRX 290900Z AUTO 00000KT 10SM CLR 09/05 A3020 RMK AO2 T00910048
KHRX 290835Z AUTO 00000KT 10SM CLR 10/06 A3020 RMK AO2 T01010059
KHRX 290815Z AUTO 00000KT 10SM CLR 10/05 A3020 RMK AO2 T01010051
KHRX 290755Z AUTO 00000KT 10SM CLR 11/05 A3020 RMK AO2 T01070046
KHRX 290735Z AUTO 00000KT 10SM CLR 12/04 A3021 RMK AO2 T01210043
KHRX 290715Z AUTO 00000KT 10SM CLR 11/03 A3020 RMK AO2 T01120033
KHRX 290655Z AUTO 00000KT 10SM CLR 11/05 A3019 RMK AO2 T01080048
KHRX 290635Z AUTO 03004KT 10SM CLR 11/04 A3019 RMK AO2 T01100044
KHRX 290615Z AUTO 35003KT 10SM CLR 11/06 A3019 RMK AO2 T01130055
KHRX 290555Z AUTO 00000KT 10SM CLR 12/06 A3019 RMK AO2 T01150058 10257 20108 402690088
KHRX 290535Z AUTO 00000KT 10SM CLR 12/04 A3019 RMK AO2 T01180041
KHRX 290515Z AUTO 00000KT 10SM CLR 13/07 A3019 RMK AO2 T01260067
KHRX 290455Z AUTO 00000KT 10SM CLR 13/04 A3019 RMK AO2 T01320037
KHRX 290435Z AUTO 12003KT 10SM CLR 14/04 A3019 RMK AO2 T01360035
KHRX 290415Z AUTO 12004KT 10SM CLR 14/04 A3019 RMK AO2 T01350036
KHRX 290355Z AUTO 13005KT 10SM CLR 14/04 A3019 RMK AO2 T01410040
KHRX 290335Z AUTO 12004KT 10SM CLR 14/04 A3018 RMK AO2 T01430041
KHRX 290315Z AUTO 11004KT 10SM CLR 16/04 A3017 RMK AO2 T01550036
KHRX 290255Z AUTO 10005KT 10SM CLR 16/04 A3017 RMK AO2 T01610036
KHRX 290235Z AUTO 09006KT 10SM CLR 18/03 A3017 RMK AO2 T01790032
KHRX 290215Z AUTO 07005KT 10SM CLR 18/03 A3016 RMK AO2 T01840030
KHRX 290155Z AUTO 07007KT 10SM CLR 21/02 A3016 RMK AO2 T02050023
KHRX 290135Z AUTO 05005KT 10SM CLR 22/02 A3015 RMK AO2 T02210023
KHRX 290115Z AUTO 05007KT 10SM CLR 23/02 A3015 RMK AO2 T02330022
KHRX 290055Z AUTO 06007KT 10SM CLR 24/02 A3014 RMK AO2 T02430017
KHRX 290035Z AUTO 04008KT 10SM CLR 25/01 A3014 RMK AO2 T02500010
KHRX 290015Z AUTO 02006KT 10SM CLR 26/01 A3014 RMK AO2 T02560014
KHRX 282355Z AUTO 06010KT 10SM CLR 26/01 A3014 RMK AO2 T02550014 10269 20239
KHRX 282335Z AUTO 04007KT 10SM CLR 26/01 A3015 RMK AO2 T02600007
KHRX 282315Z AUTO 06006KT 10SM CLR 26/01 A3016 RMK AO2 T02620010
KHRX 282255Z AUTO 06009G15KT 10SM CLR 27/01 A3016 RMK AO2 T02650013
KHRX 282235Z AUTO 03004G14KT 10SM CLR 26/01 A3016 RMK AO2 T02640008
KHRX 282215Z AUTO 02005KT 10SM CLR 26/01 A3017 RMK AO2 T02640007
KHRX 282155Z AUTO 02009G15KT 10SM CLR 26/01 A3017 RMK AO2 T02620010
KHRX 282135Z AUTO 03007G14KT 10SM CLR 27/02 A3018 RMK AO2 T02650015
KHRX 282115Z AUTO 08005G20KT 10SM CLR 26/01 A3018 RMK AO2 T02590014
KHRX 282055Z AUTO 06013G18KT 10SM CLR 26/01 A3018 RMK AO2 T02610014
KHRX 282035Z AUTO 04013G17KT 360V060 10SM CLR 26/01 A3019 RMK AO2 T02600010
KHRX 282015Z AUTO 01010G18KT 10SM CLR 26/01 A3020 RMK AO2 T02580007
KHRX 281955Z AUTO 06008G15KT 10SM CLR 25/00 A3020 RMK AO2 T02510002
KHRX 281935Z AUTO 05008G15KT 10SM CLR 25/01 A3021 RMK AO2 T02520007
KHRX 281915Z AUTO 03006G21KT 10SM CLR 25/01 A3021 RMK AO2 T02530013
KHRX 281855Z AUTO 04011G17KT 10SM CLR 25/02 A3021 RMK AO2 T02460019
KHRX 281835Z AUTO 03007G19KT 10SM CLR 24/03 A3022 RMK AO2 T02440028
KHRX 281815Z AUTO 04015G20KT 10SM CLR 24/03 A3022 RMK AO2 T02420025
KHRX 281755Z AUTO 02011G15KT 10SM CLR 24/03 A3022 RMK AO2 T02380030 10238 20088
KHRX 281735Z AUTO 04012G18KT 10SM CLR 23/04 A3023 RMK AO2 T02330041
KHRX 281715Z AUTO 04013G18KT 10SM CLR 23/04 A3023 RMK AO2 T02310039
KHRX 281655Z AUTO 02013G17KT 10SM CLR 23/04 A3023 RMK AO2 T02250043
KHRX 281635Z AUTO 04014G18KT 10SM CLR 22/05 A3023 RMK AO2 T02210050
KHRX 281615Z AUTO 05015G19KT 10SM CLR 22/06 A3023 RMK AO2 T02150056
KHRX 281555Z AUTO 05012G17KT 10SM CLR 21/07 A3024 RMK AO2 T02120066
KHRX 281535Z AUTO 04012G20KT 10SM CLR 20/07 A3024 RMK AO2 T02030069
KHRX 281515Z AUTO 03012G19KT 10SM CLR 20/07 A3024 RMK AO2 T01990072
KHRX 281455Z AUTO 04012G17KT 10SM CLR 19/08 A3024 RMK AO2 T01940077
KHRX 281435Z AUTO 03013G18KT 10SM CLR 18/08 A3024 RMK AO2 T01820077
KHRX 281415Z AUTO 03013G20KT 10SM CLR 18/08 A3024 RMK AO2 T01770079
KHRX 281355Z AUTO 02011KT 10SM CLR 16/08 A3024 RMK AO2 T01640081
KHRX 281335Z AUTO 01010KT 10SM CLR 16/08 A3023 RMK AO2 T01550082
KHRX 281315Z AUTO 01006KT 10SM CLR 14/08 A3023 RMK AO2 T01380083
KHRX 281255Z AUTO 36004KT 10SM CLR 12/08 A3022 RMK AO2 T01230080
KHRX 281235Z AUTO 00000KT 10SM CLR 11/08 A3022 RMK AO2 T01070077
KHRX 281215Z AUTO 36003KT 10SM CLR 09/07 A3020 RMK AO2 T00900066
KHRX 281155Z AUTO 35003KT 10SM CLR 09/06 A3019 RMK AO2 T00900064 10140 20090
KHRX 281135Z AUTO 36003KT 10SM CLR 09/07 A3019 RMK AO2 T00910065
KHRX 281115Z AUTO 01006KT 10SM CLR 09/07 A3017 RMK AO2 T00920067
KHRX 281055Z AUTO 02005KT 10SM CLR 10/07 A3017 RMK AO2 T00950069
KHRX 281035Z AUTO 01005KT 10SM CLR 09/07 A3016 RMK AO2 T00930070
KHRX 281015Z AUTO 36007KT 10SM CLR 10/07 A3015 RMK AO2 T00970071
KHRX 280955Z AUTO 36006KT 10SM CLR 11/08 A3015 RMK AO2 T01070076
KHRX 280935Z AUTO 01008KT 10SM CLR 12/08 A3014 RMK AO2 T01150078
KHRX 280915Z AUTO 01009KT 10SM CLR 11/08 A3014 RMK AO2 T01130079
KHRX 280855Z AUTO 36007KT 10SM CLR 12/08 A3014 RMK AO2 T01150080
KHRX 280835Z AUTO 35007KT 10SM CLR 12/08 A3014 RMK AO2 T01220080
KHRX 280815Z AUTO 33005KT 10SM CLR 11/08 A3014 RMK AO2 T01090082
KHRX 280755Z AUTO 35007KT 10SM CLR 12/09 A3013 RMK AO2 T01160085
KHRX 280735Z AUTO 01007KT 10SM CLR 13/09 A3012 RMK AO2 T01280088
KHRX 280715Z AUTO 03008KT 10SM CLR 13/09 A3012 RMK AO2 T01310088
KHRX 280655Z AUTO 03011KT 10SM CLR 14/09 A3012 RMK AO2 T01350090
KHRX 280635Z AUTO 04014G19KT 10SM CLR 14/09 A3012 RMK AO2 T01370092
KHRX 280615Z AUTO 03016G20KT 10SM CLR 14/09 A3011 RMK AO2 T01390093
KHRX 280555Z AUTO 03019G25KT 10SM CLR 14/10 A3011 RMK AO2 T01400095 10312 20140 403280121
KHRX 280535Z AUTO 03019G31KT 10SM SCT040 14/10 A3011 RMK AO2 T01410095
KHRX 280515Z AUTO 03022G32KT 10SM CLR 15/10 A3010 RMK AO2 T01460096
KHRX 280455Z AUTO 02024G31KT 10SM CLR 15/10 A3009 RMK AO2 T01510098
KHRX 280435Z AUTO 01023G34KT 10SM CLR 16/10 A3007 RMK AO2 T01600100
KHRX 280415Z AUTO 03027G35KT 5SM HZ SCT038 18/12 A3005 RMK AO2 T01830119
KHRX 280355Z AUTO 03023G30KT 10SM CLR 22/13 A3002 RMK AO2 T02200125
KHRX 280335Z AUTO 03017G22KT 10SM CLR 22/11 A2999 RMK AO2 T02150108
KHRX 280315Z AUTO 04009KT 10SM CLR 19/09 A2996 RMK AO2 T01890091
KHRX 280255Z AUTO 06007KT 10SM CLR 21/09 A2994 RMK AO2 T02090086
KHRX 280235Z AUTO 00000KT 10SM CLR 21/09 A2993 RMK AO2 T02100090
KHRX 280215Z AUTO 08006KT 10SM CLR 22/08 A2992 RMK AO2 T02210081
KHRX 280155Z AUTO 08006KT 10SM CLR 24/06 A2991 RMK AO2 T02370059
KHRX 280135Z AUTO 10004KT 10SM CLR 26/06 A2990 RMK AO2 T02570058
KHRX 280115Z AUTO 10008KT 10SM CLR 28/05 A2989 RMK AO2 T02780054
KHRX 280055Z AUTO 08006KT 10SM CLR 30/04 A2989 RMK AO2 T02950042
KHRX 280035Z AUTO 07009KT 10SM CLR 30/04 A2989 RMK AO2 T03020041
KHRX 280015Z AUTO 04008KT 10SM CLR 31/04 A2990 RMK AO2 T03070039
KHRX 272355Z AUTO 05003KT 10SM CLR 31/04 A2990 RMK AO2 T03110036 10328 20292
KHRX 272335Z AUTO 02007KT 10SM CLR 32/01 A2989 RMK AO2 T03150014


Page loaded:  11:33 UTC  |   04:33 AM Pacific  |   05:33 AM Mountain  |   06:33 AM Central  |   07:33 AM Eastern

 

ADVISORIES

FORECASTS

FORECASTS

OBSERVATIONS

USER TOOLS

ABOUT US